sensor_id;sensor_type;location;lat;lon;timestamp;temperature;humidity
3312;DHT22;1668;49.648;8.570;2022-08-19T00:01:56;22.50;99.90
3312;DHT22;1668;49.648;8.570;2022-08-19T00:04:32;22.50;99.90
3312;DHT22;1668;49.648;8.570;2022-08-19T00:07:01;22.50;99.90
3312;DHT22;1668;49.648;8.570;2022-08-19T00:09:28;22.50;99.90
3312;DHT22;1668;49.648;8.570;2022-08-19T00:11:56;22.50;99.90
3312;DHT22;1668;49.648;8.570;2022-08-19T00:14:25;22.50;99.90
3312;DHT22;1668;49.648;8.570;2022-08-19T00:16:53;22.50;99.90
3312;DHT22;1668;49.648;8.570;2022-08-19T00:19:20;22.50;99.90
3312;DHT22;1668;49.648;8.570;2022-08-19T00:21:49;22.50;99.90
3312;DHT22;1668;49.648;8.570;2022-08-19T00:24:16;22.50;99.90
3312;DHT22;1668;49.648;8.570;2022-08-19T00:26:44;22.50;99.90
3312;DHT22;1668;49.648;8.570;2022-08-19T00:29:13;22.40;99.90
3312;DHT22;1668;49.648;8.570;2022-08-19T00:31:40;22.30;99.90
3312;DHT22;1668;49.648;8.570;2022-08-19T00:34:08;22.10;99.90
3312;DHT22;1668;49.648;8.570;2022-08-19T00:36:35;22.10;99.90
3312;DHT22;1668;49.648;8.570;2022-08-19T00:39:04;22.10;99.90
3312;DHT22;1668;49.648;8.570;2022-08-19T00:41:31;22.10;99.90
3312;DHT22;1668;49.648;8.570;2022-08-19T00:44:04;22.00;99.90
3312;DHT22;1668;49.648;8.570;2022-08-19T00:46:32;22.00;99.90
3312;DHT22;1668;49.648;8.570;2022-08-19T00:49:04;22.00;99.90
3312;DHT22;1668;49.648;8.570;2022-08-19T00:51:33;22.00;99.90
3312;DHT22;1668;49.648;8.570;2022-08-19T00:54:02;22.00;99.90
3312;DHT22;1668;49.648;8.570;2022-08-19T00:56:31;21.90;99.90
3312;DHT22;1668;49.648;8.570;2022-08-19T00:58:58;21.90;99.90
3312;DHT22;1668;49.648;8.570;2022-08-19T01:01:27;21.90;99.90
3312;DHT22;1668;49.648;8.570;2022-08-19T01:03:54;21.90;99.90
3312;DHT22;1668;49.648;8.570;2022-08-19T01:06:21;21.90;99.90
3312;DHT22;1668;49.648;8.570;2022-08-19T01:08:48;21.80;99.90
3312;DHT22;1668;49.648;8.570;2022-08-19T01:11:15;21.80;99.90
3312;DHT22;1668;49.648;8.570;2022-08-19T01:13:44;21.80;99.90
3312;DHT22;1668;49.648;8.570;2022-08-19T01:16:12;21.80;99.90
3312;DHT22;1668;49.648;8.570;2022-08-19T01:18:42;21.80;99.90
3312;DHT22;1668;49.648;8.570;2022-08-19T01:21:12;21.80;99.90
3312;DHT22;1668;49.648;8.570;2022-08-19T01:23:45;21.80;99.90
3312;DHT22;1668;49.648;8.570;2022-08-19T01:26:14;21.80;99.90
3312;DHT22;1668;49.648;8.570;2022-08-19T01:28:43;21.80;99.90
3312;DHT22;1668;49.648;8.570;2022-08-19T01:31:14;21.80;99.90
3312;DHT22;1668;49.648;8.570;2022-08-19T01:33:41;21.80;99.90
3312;DHT22;1668;49.648;8.570;2022-08-19T01:36:12;21.80;99.90
3312;DHT22;1668;49.648;8.570;2022-08-19T01:38:42;21.80;99.90
3312;DHT22;1668;49.648;8.570;2022-08-19T01:41:11;21.80;99.90
3312;DHT22;1668;49.648;8.570;2022-08-19T01:43:38;21.80;99.90
3312;DHT22;1668;49.648;8.570;2022-08-19T01:46:06;21.80;99.90
3312;DHT22;1668;49.648;8.570;2022-08-19T01:48:34;21.80;99.90
3312;DHT22;1668;49.648;8.570;2022-08-19T01:51:02;21.80;99.90
3312;DHT22;1668;49.648;8.570;2022-08-19T01:53:29;21.80;99.90
3312;DHT22;1668;49.648;8.570;2022-08-19T01:55:57;21.80;99.90
3312;DHT22;1668;49.648;8.570;2022-08-19T01:58:29;21.80;99.90
3312;DHT22;1668;49.648;8.570;2022-08-19T02:00:57;21.80;99.90
3312;DHT22;1668;49.648;8.570;2022-08-19T02:03:24;21.80;99.90
3312;DHT22;1668;49.648;8.570;2022-08-19T02:05:55;21.80;99.90
3312;DHT22;1668;49.648;8.570;2022-08-19T02:08:23;21.80;99.90
3312;DHT22;1668;49.648;8.570;2022-08-19T02:10:50;21.80;99.90
3312;DHT22;1668;49.648;8.570;2022-08-19T02:13:17;21.80;99.90
3312;DHT22;1668;49.648;8.570;2022-08-19T02:15:45;21.80;99.90
3312;DHT22;1668;49.648;8.570;2022-08-19T02:18:12;21.80;99.90
3312;DHT22;1668;49.648;8.570;2022-08-19T02:20:40;21.80;99.90
3312;DHT22;1668;49.648;8.570;2022-08-19T02:23:10;21.80;99.90
3312;DHT22;1668;49.648;8.570;2022-08-19T02:25:38;21.70;99.90
3312;DHT22;1668;49.648;8.570;2022-08-19T02:28:06;21.80;99.90
3312;DHT22;1668;49.648;8.570;2022-08-19T02:30:33;21.80;99.90
3312;DHT22;1668;49.648;8.570;2022-08-19T02:33:01;21.80;99.90
3312;DHT22;1668;49.648;8.570;2022-08-19T02:35:28;21.80;99.90
3312;DHT22;1668;49.648;8.570;2022-08-19T02:37:55;21.70;99.90
3312;DHT22;1668;49.648;8.570;2022-08-19T02:40:48;21.70;99.90
3312;DHT22;1668;49.648;8.570;2022-08-19T02:43:17;21.70;99.90
3312;DHT22;1668;49.648;8.570;2022-08-19T02:45:46;21.70;99.90
3312;DHT22;1668;49.648;8.570;2022-08-19T02:48:15;21.70;99.90
3312;DHT22;1668;49.648;8.570;2022-08-19T02:50:43;21.70;99.90
3312;DHT22;1668;49.648;8.570;2022-08-19T02:53:10;21.70;99.90
3312;DHT22;1668;49.648;8.570;2022-08-19T02:55:45;21.60;99.90
3312;DHT22;1668;49.648;8.570;2022-08-19T02:58:13;21.60;99.90
3312;DHT22;1668;49.648;8.570;2022-08-19T03:00:44;21.60;99.90
3312;DHT22;1668;49.648;8.570;2022-08-19T03:03:11;21.60;99.90
3312;DHT22;1668;49.648;8.570;2022-08-19T03:05:40;21.60;99.90
3312;DHT22;1668;49.648;8.570;2022-08-19T03:08:08;21.60;99.90
3312;DHT22;1668;49.648;8.570;2022-08-19T03:10:42;21.60;99.90
3312;DHT22;1668;49.648;8.570;2022-08-19T03:13:14;21.50;99.90
3312;DHT22;1668;49.648;8.570;2022-08-19T03:15:42;21.60;99.90
3312;DHT22;1668;49.648;8.570;2022-08-19T03:18:09;21.50;99.90
3312;DHT22;1668;49.648;8.570;2022-08-19T03:20:42;21.50;99.90
3312;DHT22;1668;49.648;8.570;2022-08-19T03:23:09;21.40;99.90
3312;DHT22;1668;49.648;8.570;2022-08-19T03:25:39;21.40;99.90
3312;DHT22;1668;49.648;8.570;2022-08-19T03:28:09;21.40;99.90
3312;DHT22;1668;49.648;8.570;2022-08-19T03:30:36;21.40;99.90
3312;DHT22;1668;49.648;8.570;2022-08-19T03:33:03;21.30;99.90
3312;DHT22;1668;49.648;8.570;2022-08-19T03:35:30;21.30;99.90
3312;DHT22;1668;49.648;8.570;2022-08-19T03:37:59;21.20;99.90
3312;DHT22;1668;49.648;8.570;2022-08-19T03:40:26;21.30;99.90
3312;DHT22;1668;49.648;8.570;2022-08-19T03:42:55;21.30;99.90
3312;DHT22;1668;49.648;8.570;2022-08-19T03:45:22;21.20;99.90
3312;DHT22;1668;49.648;8.570;2022-08-19T03:47:49;21.20;99.90
3312;DHT22;1668;49.648;8.570;2022-08-19T03:50:16;21.20;99.90
3312;DHT22;1668;49.648;8.570;2022-08-19T03:52:48;21.20;99.90
3312;DHT22;1668;49.648;8.570;2022-08-19T03:55:17;21.10;99.90
3312;DHT22;1668;49.648;8.570;2022-08-19T03:57:45;21.10;99.90
3312;DHT22;1668;49.648;8.570;2022-08-19T04:00:14;21.10;99.90
3312;DHT22;1668;49.648;8.570;2022-08-19T04:02:41;21.10;99.90
3312;DHT22;1668;49.648;8.570;2022-08-19T04:05:09;21.10;99.90
3312;DHT22;1668;49.648;8.570;2022-08-19T04:07:36;21.10;99.90
3312;DHT22;1668;49.648;8.570;2022-08-19T04:10:03;21.10;99.90
3312;DHT22;1668;49.648;8.570;2022-08-19T04:12:32;21.10;99.90
3312;DHT22;1668;49.648;8.570;2022-08-19T04:14:59;21.10;99.90
3312;DHT22;1668;49.648;8.570;2022-08-19T04:17:25;21.10;99.90
3312;DHT22;1668;49.648;8.570;2022-08-19T04:19:52;21.10;99.90
3312;DHT22;1668;49.648;8.570;2022-08-19T04:22:19;21.10;99.90
3312;DHT22;1668;49.648;8.570;2022-08-19T04:24:46;21.10;99.90
3312;DHT22;1668;49.648;8.570;2022-08-19T04:27:13;21.10;99.90
3312;DHT22;1668;49.648;8.570;2022-08-19T04:29:42;21.10;99.90
3312;DHT22;1668;49.648;8.570;2022-08-19T04:32:09;21.00;99.90
3312;DHT22;1668;49.648;8.570;2022-08-19T04:34:37;21.00;99.90
3312;DHT22;1668;49.648;8.570;2022-08-19T04:37:05;21.00;99.90
3312;DHT22;1668;49.648;8.570;2022-08-19T04:39:39;21.00;99.90
3312;DHT22;1668;49.648;8.570;2022-08-19T04:42:23;21.00;99.90
3312;DHT22;1668;49.648;8.570;2022-08-19T04:45:09;21.00;99.90
3312;DHT22;1668;49.648;8.570;2022-08-19T04:47:37;20.90;99.90
3312;DHT22;1668;49.648;8.570;2022-08-19T04:50:05;21.00;99.90
3312;DHT22;1668;49.648;8.570;2022-08-19T04:52:32;21.00;99.90
3312;DHT22;1668;49.648;8.570;2022-08-19T04:54:59;21.00;99.90
3312;DHT22;1668;49.648;8.570;2022-08-19T04:57:26;21.00;99.90
3312;DHT22;1668;49.648;8.570;2022-08-19T04:59:54;21.00;99.90
3312;DHT22;1668;49.648;8.570;2022-08-19T05:02:22;21.00;99.90
3312;DHT22;1668;49.648;8.570;2022-08-19T05:04:50;21.00;99.90
3312;DHT22;1668;49.648;8.570;2022-08-19T05:07:19;21.00;99.90
3312;DHT22;1668;49.648;8.570;2022-08-19T05:09:46;21.00;99.90
3312;DHT22;1668;49.648;8.570;2022-08-19T05:12:13;21.00;99.90
3312;DHT22;1668;49.648;8.570;2022-08-19T05:14:41;21.00;99.90
3312;DHT22;1668;49.648;8.570;2022-08-19T05:17:08;21.00;99.90
3312;DHT22;1668;49.648;8.570;2022-08-19T05:19:36;21.00;99.90
3312;DHT22;1668;49.648;8.570;2022-08-19T05:22:20;21.00;99.90
3312;DHT22;1668;49.648;8.570;2022-08-19T05:25:03;21.00;99.90
3312;DHT22;1668;49.648;8.570;2022-08-19T05:27:31;21.00;99.90
3312;DHT22;1668;49.648;8.570;2022-08-19T05:29:58;21.00;99.90
3312;DHT22;1668;49.648;8.570;2022-08-19T05:32:25;21.00;99.90
3312;DHT22;1668;49.648;8.570;2022-08-19T05:34:54;21.00;99.90
3312;DHT22;1668;49.648;8.570;2022-08-19T05:37:21;21.00;99.90
3312;DHT22;1668;49.648;8.570;2022-08-19T05:39:48;21.00;99.90
3312;DHT22;1668;49.648;8.570;2022-08-19T05:42:15;21.00;99.90
3312;DHT22;1668;49.648;8.570;2022-08-19T05:44:43;21.00;99.90
3312;DHT22;1668;49.648;8.570;2022-08-19T05:47:13;21.00;99.90
3312;DHT22;1668;49.648;8.570;2022-08-19T05:49:41;21.00;99.90
3312;DHT22;1668;49.648;8.570;2022-08-19T05:52:11;21.00;99.90
3312;DHT22;1668;49.648;8.570;2022-08-19T05:54:40;21.00;99.90
3312;DHT22;1668;49.648;8.570;2022-08-19T05:57:08;21.00;99.90
3312;DHT22;1668;49.648;8.570;2022-08-19T05:59:36;21.00;99.90
3312;DHT22;1668;49.648;8.570;2022-08-19T06:02:04;21.00;99.90
3312;DHT22;1668;49.648;8.570;2022-08-19T06:04:32;21.10;99.90
3312;DHT22;1668;49.648;8.570;2022-08-19T06:06:59;21.10;99.90
3312;DHT22;1668;49.648;8.570;2022-08-19T06:09:29;21.10;99.90
3312;DHT22;1668;49.648;8.570;2022-08-19T06:11:57;21.10;99.90
3312;DHT22;1668;49.648;8.570;2022-08-19T06:14:27;21.10;99.90
3312;DHT22;1668;49.648;8.570;2022-08-19T06:16:54;21.10;99.90
3312;DHT22;1668;49.648;8.570;2022-08-19T06:19:23;21.10;99.90
3312;DHT22;1668;49.648;8.570;2022-08-19T06:21:51;21.20;99.90
3312;DHT22;1668;49.648;8.570;2022-08-19T06:24:20;21.20;99.90
3312;DHT22;1668;49.648;8.570;2022-08-19T06:26:51;21.20;99.90
3312;DHT22;1668;49.648;8.570;2022-08-19T06:29:21;21.20;99.90
3312;DHT22;1668;49.648;8.570;2022-08-19T06:31:51;21.30;99.90
3312;DHT22;1668;49.648;8.570;2022-08-19T06:34:19;21.30;99.90
3312;DHT22;1668;49.648;8.570;2022-08-19T06:36:48;21.30;99.90
3312;DHT22;1668;49.648;8.570;2022-08-19T06:39:19;21.30;99.90
3312;DHT22;1668;49.648;8.570;2022-08-19T06:41:48;21.40;99.90
3312;DHT22;1668;49.648;8.570;2022-08-19T06:44:17;21.40;99.90
3312;DHT22;1668;49.648;8.570;2022-08-19T06:46:44;21.40;99.90
3312;DHT22;1668;49.648;8.570;2022-08-19T06:49:12;21.40;99.90
3312;DHT22;1668;49.648;8.570;2022-08-19T06:51:41;21.40;99.90
3312;DHT22;1668;49.648;8.570;2022-08-19T06:54:09;21.50;99.90
3312;DHT22;1668;49.648;8.570;2022-08-19T06:56:37;21.50;99.90
3312;DHT22;1668;49.648;8.570;2022-08-19T06:59:06;21.50;99.90
3312;DHT22;1668;49.648;8.570;2022-08-19T07:01:36;21.60;99.90
3312;DHT22;1668;49.648;8.570;2022-08-19T07:04:04;21.60;99.90
3312;DHT22;1668;49.648;8.570;2022-08-19T07:06:31;21.60;99.90
3312;DHT22;1668;49.648;8.570;2022-08-19T07:08:58;21.60;99.90
3312;DHT22;1668;49.648;8.570;2022-08-19T07:11:26;21.70;99.90
3312;DHT22;1668;49.648;8.570;2022-08-19T07:13:53;21.70;99.90
3312;DHT22;1668;49.648;8.570;2022-08-19T07:16:20;21.70;99.90
3312;DHT22;1668;49.648;8.570;2022-08-19T07:18:50;21.70;99.90
3312;DHT22;1668;49.648;8.570;2022-08-19T07:21:19;21.80;99.90
3312;DHT22;1668;49.648;8.570;2022-08-19T07:23:47;21.80;99.90
3312;DHT22;1668;49.648;8.570;2022-08-19T07:26:17;21.80;99.90
3312;DHT22;1668;49.648;8.570;2022-08-19T07:28:45;21.80;99.90
3312;DHT22;1668;49.648;8.570;2022-08-19T07:31:13;21.80;99.90
3312;DHT22;1668;49.648;8.570;2022-08-19T07:33:40;21.90;99.90
3312;DHT22;1668;49.648;8.570;2022-08-19T07:36:12;21.90;99.90
3312;DHT22;1668;49.648;8.570;2022-08-19T07:38:42;22.00;99.90
3312;DHT22;1668;49.648;8.570;2022-08-19T07:41:10;22.00;99.90
3312;DHT22;1668;49.648;8.570;2022-08-19T07:43:38;22.10;99.90
3312;DHT22;1668;49.648;8.570;2022-08-19T07:46:06;22.20;99.90
3312;DHT22;1668;49.648;8.570;2022-08-19T07:48:34;22.20;99.90
3312;DHT22;1668;49.648;8.570;2022-08-19T07:51:03;22.30;99.90
3312;DHT22;1668;49.648;8.570;2022-08-19T07:53:32;22.40;99.90
3312;DHT22;1668;49.648;8.570;2022-08-19T07:55:59;22.50;99.90
3312;DHT22;1668;49.648;8.570;2022-08-19T07:58:30;22.60;99.90
3312;DHT22;1668;49.648;8.570;2022-08-19T08:00:58;22.60;99.90
3312;DHT22;1668;49.648;8.570;2022-08-19T08:03:26;22.70;99.90
3312;DHT22;1668;49.648;8.570;2022-08-19T08:06:07;22.70;99.90
3312;DHT22;1668;49.648;8.570;2022-08-19T08:08:54;22.70;99.90
3312;DHT22;1668;49.648;8.570;2022-08-19T08:11:35;22.80;99.90
3312;DHT22;1668;49.648;8.570;2022-08-19T08:14:02;22.90;99.90
3312;DHT22;1668;49.648;8.570;2022-08-19T08:16:32;22.90;99.90
3312;DHT22;1668;49.648;8.570;2022-08-19T08:19:00;23.00;99.90
3312;DHT22;1668;49.648;8.570;2022-08-19T08:21:27;23.00;99.90
3312;DHT22;1668;49.648;8.570;2022-08-19T08:23:55;23.00;99.90
3312;DHT22;1668;49.648;8.570;2022-08-19T08:26:22;23.10;99.90
3312;DHT22;1668;49.648;8.570;2022-08-19T08:28:50;23.10;99.90
3312;DHT22;1668;49.648;8.570;2022-08-19T08:31:17;23.20;99.90
3312;DHT22;1668;49.648;8.570;2022-08-19T08:33:45;23.20;99.90
3312;DHT22;1668;49.648;8.570;2022-08-19T08:36:13;23.20;99.90
3312;DHT22;1668;49.648;8.570;2022-08-19T08:38:42;23.30;99.90
3312;DHT22;1668;49.648;8.570;2022-08-19T08:41:18;23.40;99.90
3312;DHT22;1668;49.648;8.570;2022-08-19T08:43:51;23.50;99.90
3312;DHT22;1668;49.648;8.570;2022-08-19T08:46:24;23.50;99.90
3312;DHT22;1668;49.648;8.570;2022-08-19T08:48:57;23.50;99.90
3312;DHT22;1668;49.648;8.570;2022-08-19T08:51:28;23.60;99.90
3312;DHT22;1668;49.648;8.570;2022-08-19T08:53:59;23.60;99.90
3312;DHT22;1668;49.648;8.570;2022-08-19T08:56:29;23.70;99.90
3312;DHT22;1668;49.648;8.570;2022-08-19T08:58:59;23.80;99.90
3312;DHT22;1668;49.648;8.570;2022-08-19T09:01:29;23.80;99.90
3312;DHT22;1668;49.648;8.570;2022-08-19T09:03:56;23.80;99.90
3312;DHT22;1668;49.648;8.570;2022-08-19T09:06:29;23.90;99.90
3312;DHT22;1668;49.648;8.570;2022-08-19T09:09:03;24.00;99.90
3312;DHT22;1668;49.648;8.570;2022-08-19T09:11:45;24.00;99.90
3312;DHT22;1668;49.648;8.570;2022-08-19T09:14:25;24.10;99.90
3312;DHT22;1668;49.648;8.570;2022-08-19T09:16:55;24.30;99.90
3312;DHT22;1668;49.648;8.570;2022-08-19T09:19:22;24.40;99.80
3312;DHT22;1668;49.648;8.570;2022-08-19T09:21:49;24.50;98.60
3312;DHT22;1668;49.648;8.570;2022-08-19T09:24:17;24.70;98.00
3312;DHT22;1668;49.648;8.570;2022-08-19T09:26:45;24.80;96.70
3312;DHT22;1668;49.648;8.570;2022-08-19T09:29:12;24.80;97.40
3312;DHT22;1668;49.648;8.570;2022-08-19T09:31:39;25.00;97.00
3312;DHT22;1668;49.648;8.570;2022-08-19T09:34:06;25.10;96.90
3312;DHT22;1668;49.648;8.570;2022-08-19T09:36:33;25.20;96.40
3312;DHT22;1668;49.648;8.570;2022-08-19T09:39:02;25.30;95.90
3312;DHT22;1668;49.648;8.570;2022-08-19T09:41:29;25.40;95.70
3312;DHT22;1668;49.648;8.570;2022-08-19T09:43:58;25.50;94.60
3312;DHT22;1668;49.648;8.570;2022-08-19T09:46:28;25.70;93.70
3312;DHT22;1668;49.648;8.570;2022-08-19T09:48:59;25.70;93.40
3312;DHT22;1668;49.648;8.570;2022-08-19T09:51:27;25.70;93.60
3312;DHT22;1668;49.648;8.570;2022-08-19T09:53:59;25.70;93.40
3312;DHT22;1668;49.648;8.570;2022-08-19T09:56:26;25.60;93.00
3312;DHT22;1668;49.648;8.570;2022-08-19T09:58:53;25.70;93.40
3312;DHT22;1668;49.648;8.570;2022-08-19T10:01:24;25.70;92.60
3312;DHT22;1668;49.648;8.570;2022-08-19T10:03:53;25.90;93.00
3312;DHT22;1668;49.648;8.570;2022-08-19T10:06:20;26.00;92.70
3312;DHT22;1668;49.648;8.570;2022-08-19T10:08:49;26.10;91.70
3312;DHT22;1668;49.648;8.570;2022-08-19T10:11:16;26.00;91.60
3312;DHT22;1668;49.648;8.570;2022-08-19T10:13:44;26.00;92.10
3312;DHT22;1668;49.648;8.570;2022-08-19T10:16:13;25.90;92.80
3312;DHT22;1668;49.648;8.570;2022-08-19T10:18:42;25.90;92.90
3312;DHT22;1668;49.648;8.570;2022-08-19T10:21:12;25.90;93.40
3312;DHT22;1668;49.648;8.570;2022-08-19T10:23:42;26.00;93.10
3312;DHT22;1668;49.648;8.570;2022-08-19T10:26:11;26.10;92.30
3312;DHT22;1668;49.648;8.570;2022-08-19T10:28:39;26.30;92.20
3312;DHT22;1668;49.648;8.570;2022-08-19T10:31:07;26.40;92.10
3312;DHT22;1668;49.648;8.570;2022-08-19T10:33:35;26.50;91.90
3312;DHT22;1668;49.648;8.570;2022-08-19T10:36:07;26.60;91.00
3312;DHT22;1668;49.648;8.570;2022-08-19T10:38:35;26.50;90.70
3312;DHT22;1668;49.648;8.570;2022-08-19T10:41:10;26.50;90.60
3312;DHT22;1668;49.648;8.570;2022-08-19T10:43:38;26.60;90.70
3312;DHT22;1668;49.648;8.570;2022-08-19T10:46:05;26.70;90.90
3312;DHT22;1668;49.648;8.570;2022-08-19T10:48:32;26.70;88.20
3312;DHT22;1668;49.648;8.570;2022-08-19T10:51:00;26.70;88.30
3312;DHT22;1668;49.648;8.570;2022-08-19T10:53:46;26.70;88.40
3312;DHT22;1668;49.648;8.570;2022-08-19T10:56:13;26.90;89.10
3312;DHT22;1668;49.648;8.570;2022-08-19T10:58:58;26.90;87.20
3312;DHT22;1668;49.648;8.570;2022-08-19T11:01:25;27.00;87.50
3312;DHT22;1668;49.648;8.570;2022-08-19T11:03:52;27.00;86.20
3312;DHT22;1668;49.648;8.570;2022-08-19T11:06:19;27.00;86.70
3312;DHT22;1668;49.648;8.570;2022-08-19T11:08:48;27.10;85.50
3312;DHT22;1668;49.648;8.570;2022-08-19T11:11:15;27.10;85.40
3312;DHT22;1668;49.648;8.570;2022-08-19T11:13:42;27.10;85.00
3312;DHT22;1668;49.648;8.570;2022-08-19T11:16:13;27.30;83.60
3312;DHT22;1668;49.648;8.570;2022-08-19T11:18:46;27.30;82.60
3312;DHT22;1668;49.648;8.570;2022-08-19T11:21:15;27.30;83.90
3312;DHT22;1668;49.648;8.570;2022-08-19T11:23:45;27.50;82.50
3312;DHT22;1668;49.648;8.570;2022-08-19T11:26:14;27.70;81.20
3312;DHT22;1668;49.648;8.570;2022-08-19T11:28:41;27.80;80.50
3312;DHT22;1668;49.648;8.570;2022-08-19T11:31:12;27.80;79.70
3312;DHT22;1668;49.648;8.570;2022-08-19T11:33:39;28.00;81.20
3312;DHT22;1668;49.648;8.570;2022-08-19T11:36:06;28.00;80.50
3312;DHT22;1668;49.648;8.570;2022-08-19T11:38:34;28.10;79.50
3312;DHT22;1668;49.648;8.570;2022-08-19T11:41:07;28.30;79.20
3312;DHT22;1668;49.648;8.570;2022-08-19T11:43:35;28.40;79.80
3312;DHT22;1668;49.648;8.570;2022-08-19T11:46:04;28.40;77.90
3312;DHT22;1668;49.648;8.570;2022-08-19T11:48:32;28.30;78.00
3312;DHT22;1668;49.648;8.570;2022-08-19T11:51:03;28.20;77.80
3312;DHT22;1668;49.648;8.570;2022-08-19T11:53:32;28.20;77.90
3312;DHT22;1668;49.648;8.570;2022-08-19T11:56:00;28.40;76.00
3312;DHT22;1668;49.648;8.570;2022-08-19T11:58:27;28.40;72.20
3312;DHT22;1668;49.648;8.570;2022-08-19T12:00:57;28.60;68.40
3312;DHT22;1668;49.648;8.570;2022-08-19T12:03:24;28.50;69.10
3312;DHT22;1668;49.648;8.570;2022-08-19T12:05:51;28.60;68.60
3312;DHT22;1668;49.648;8.570;2022-08-19T12:08:19;28.70;70.10
3312;DHT22;1668;49.648;8.570;2022-08-19T12:10:46;28.90;67.50
3312;DHT22;1668;49.648;8.570;2022-08-19T12:13:13;29.10;66.00
3312;DHT22;1668;49.648;8.570;2022-08-19T12:15:46;29.20;68.20
3312;DHT22;1668;49.648;8.570;2022-08-19T12:18:14;29.20;67.60
3312;DHT22;1668;49.648;8.570;2022-08-19T12:20:42;29.30;65.40
3312;DHT22;1668;49.648;8.570;2022-08-19T12:23:11;29.50;65.40
3312;DHT22;1668;49.648;8.570;2022-08-19T12:25:44;29.30;65.50
3312;DHT22;1668;49.648;8.570;2022-08-19T12:28:15;29.30;64.90
3312;DHT22;1668;49.648;8.570;2022-08-19T12:30:42;29.40;65.80
3312;DHT22;1668;49.648;8.570;2022-08-19T12:33:09;29.40;67.00
3312;DHT22;1668;49.648;8.570;2022-08-19T12:35:41;29.50;64.70
3312;DHT22;1668;49.648;8.570;2022-08-19T12:38:09;29.30;64.60
3312;DHT22;1668;49.648;8.570;2022-08-19T12:40:36;29.40;66.00
3312;DHT22;1668;49.648;8.570;2022-08-19T12:43:04;29.20;66.30
3312;DHT22;1668;49.648;8.570;2022-08-19T12:45:31;29.00;65.80
3312;DHT22;1668;49.648;8.570;2022-08-19T12:47:58;28.80;65.90
3312;DHT22;1668;49.648;8.570;2022-08-19T12:50:25;29.10;66.10
3312;DHT22;1668;49.648;8.570;2022-08-19T12:52:53;29.00;64.70
3312;DHT22;1668;49.648;8.570;2022-08-19T12:55:20;29.10;66.40
3312;DHT22;1668;49.648;8.570;2022-08-19T12:57:47;29.20;65.10
3312;DHT22;1668;49.648;8.570;2022-08-19T13:00:17;29.30;65.00
3312;DHT22;1668;49.648;8.570;2022-08-19T13:02:48;29.20;63.70
3312;DHT22;1668;49.648;8.570;2022-08-19T13:05:17;29.00;63.40
3312;DHT22;1668;49.648;8.570;2022-08-19T13:07:46;29.00;63.70
3312;DHT22;1668;49.648;8.570;2022-08-19T13:10:18;29.20;61.30
3312;DHT22;1668;49.648;8.570;2022-08-19T13:12:46;29.30;61.90
3312;DHT22;1668;49.648;8.570;2022-08-19T13:15:15;29.40;60.60
3312;DHT22;1668;49.648;8.570;2022-08-19T13:17:46;29.80;60.80
3312;DHT22;1668;49.648;8.570;2022-08-19T13:20:16;30.20;59.10
3312;DHT22;1668;49.648;8.570;2022-08-19T13:22:44;30.00;59.30
3312;DHT22;1668;49.648;8.570;2022-08-19T13:25:13;30.00;58.70
3312;DHT22;1668;49.648;8.570;2022-08-19T13:27:43;30.10;59.40
3312;DHT22;1668;49.648;8.570;2022-08-19T13:30:12;30.20;58.00
3312;DHT22;1668;49.648;8.570;2022-08-19T13:32:57;30.40;56.40
3312;DHT22;1668;49.648;8.570;2022-08-19T13:35:47;30.70;57.40
3312;DHT22;1668;49.648;8.570;2022-08-19T13:38:15;30.90;56.50
3312;DHT22;1668;49.648;8.570;2022-08-19T13:40:43;30.80;54.80
3312;DHT22;1668;49.648;8.570;2022-08-19T13:43:11;30.60;56.20
3312;DHT22;1668;49.648;8.570;2022-08-19T13:45:39;30.40;54.40
3312;DHT22;1668;49.648;8.570;2022-08-19T13:48:07;30.30;54.00
3312;DHT22;1668;49.648;8.570;2022-08-19T13:50:38;30.30;54.50
3312;DHT22;1668;49.648;8.570;2022-08-19T13:53:06;30.60;54.50
3312;DHT22;1668;49.648;8.570;2022-08-19T13:55:33;30.90;54.70
3312;DHT22;1668;49.648;8.570;2022-08-19T13:58:01;31.10;51.10
3312;DHT22;1668;49.648;8.570;2022-08-19T14:00:32;31.30;50.50
3312;DHT22;1668;49.648;8.570;2022-08-19T14:02:59;31.30;49.90
3312;DHT22;1668;49.648;8.570;2022-08-19T14:05:28;31.50;51.00
3312;DHT22;1668;49.648;8.570;2022-08-19T14:07:55;31.70;50.40
3312;DHT22;1668;49.648;8.570;2022-08-19T14:10:23;31.70;51.10
3312;DHT22;1668;49.648;8.570;2022-08-19T14:12:54;31.80;50.60
3312;DHT22;1668;49.648;8.570;2022-08-19T14:15:24;32.10;49.00
3312;DHT22;1668;49.648;8.570;2022-08-19T14:17:53;31.70;49.50
3312;DHT22;1668;49.648;8.570;2022-08-19T14:20:20;31.80;49.60
3312;DHT22;1668;49.648;8.570;2022-08-19T14:22:48;31.60;48.40
3312;DHT22;1668;49.648;8.570;2022-08-19T14:25:17;31.60;48.70
3312;DHT22;1668;49.648;8.570;2022-08-19T14:27:45;31.30;49.30
3312;DHT22;1668;49.648;8.570;2022-08-19T14:30:14;31.60;49.40
3312;DHT22;1668;49.648;8.570;2022-08-19T14:32:42;31.70;48.30
3312;DHT22;1668;49.648;8.570;2022-08-19T14:35:12;31.90;46.70
3312;DHT22;1668;49.648;8.570;2022-08-19T14:37:40;31.80;47.60
3312;DHT22;1668;49.648;8.570;2022-08-19T14:40:08;31.90;45.40
3312;DHT22;1668;49.648;8.570;2022-08-19T14:42:35;32.10;46.10
3312;DHT22;1668;49.648;8.570;2022-08-19T14:45:03;31.90;45.80
3312;DHT22;1668;49.648;8.570;2022-08-19T14:47:31;31.90;46.00
3312;DHT22;1668;49.648;8.570;2022-08-19T14:49:59;31.90;46.00
3312;DHT22;1668;49.648;8.570;2022-08-19T14:52:27;31.90;46.00
3312;DHT22;1668;49.648;8.570;2022-08-19T14:54:54;31.90;44.50
3312;DHT22;1668;49.648;8.570;2022-08-19T14:57:21;31.90;42.70
3312;DHT22;1668;49.648;8.570;2022-08-19T14:59:48;32.00;41.90
3312;DHT22;1668;49.648;8.570;2022-08-19T15:02:15;32.20;42.20
3312;DHT22;1668;49.648;8.570;2022-08-19T15:04:42;32.30;40.90
3312;DHT22;1668;49.648;8.570;2022-08-19T15:07:10;32.30;42.10
3312;DHT22;1668;49.648;8.570;2022-08-19T15:09:39;32.10;41.90
3312;DHT22;1668;49.648;8.570;2022-08-19T15:12:07;32.10;41.80
3312;DHT22;1668;49.648;8.570;2022-08-19T15:14:36;32.30;42.50
3312;DHT22;1668;49.648;8.570;2022-08-19T15:17:04;32.40;41.20
3312;DHT22;1668;49.648;8.570;2022-08-19T15:19:32;32.20;40.20
3312;DHT22;1668;49.648;8.570;2022-08-19T15:22:01;32.20;39.10
3312;DHT22;1668;49.648;8.570;2022-08-19T15:24:28;32.40;38.50
3312;DHT22;1668;49.648;8.570;2022-08-19T15:26:57;32.60;38.10
3312;DHT22;1668;49.648;8.570;2022-08-19T15:29:24;32.70;38.90
3312;DHT22;1668;49.648;8.570;2022-08-19T15:31:53;32.60;38.30
3312;DHT22;1668;49.648;8.570;2022-08-19T15:34:23;32.60;37.30
3312;DHT22;1668;49.648;8.570;2022-08-19T15:36:50;32.40;36.00
3312;DHT22;1668;49.648;8.570;2022-08-19T15:39:18;32.30;36.10
3312;DHT22;1668;49.648;8.570;2022-08-19T15:41:45;32.30;34.80
3312;DHT22;1668;49.648;8.570;2022-08-19T15:44:17;32.30;35.70
3312;DHT22;1668;49.648;8.570;2022-08-19T15:46:46;32.00;35.80
3312;DHT22;1668;49.648;8.570;2022-08-19T15:49:14;32.10;36.60
3312;DHT22;1668;49.648;8.570;2022-08-19T15:51:44;32.00;36.50
3312;DHT22;1668;49.648;8.570;2022-08-19T15:54:13;32.00;36.90
3312;DHT22;1668;49.648;8.570;2022-08-19T15:56:40;31.90;36.90
3312;DHT22;1668;49.648;8.570;2022-08-19T15:59:27;31.90;37.10
3312;DHT22;1668;49.648;8.570;2022-08-19T16:02:11;31.80;36.90
3312;DHT22;1668;49.648;8.570;2022-08-19T16:04:56;31.80;36.90
3312;DHT22;1668;49.648;8.570;2022-08-19T16:07:40;31.50;37.30
3312;DHT22;1668;49.648;8.570;2022-08-19T16:10:08;31.50;36.70
3312;DHT22;1668;49.648;8.570;2022-08-19T16:12:36;31.60;37.70
3312;DHT22;1668;49.648;8.570;2022-08-19T16:15:06;31.50;36.60